Megargel, Alabama
Current Conditions -  °F | °C
As of 4:53 PM on Tuesday 27 Jan 2015 (Local Time) from KGZH Reporting Station
Clear Clear  
Wind Chill: 62°   Ceiling: Unl
Heat Index: 62°   Visibility: 10mi
Dew Point: 34°   Wind: 7mph
Humidity: 35%   Direction: 340°NNW
Pressure: 30.04"   Gusts: NA
Location:  31.38°N, 87.43°W
Report Text: KGZH 272253Z AUTO 34006KT 10SM CLR 17/01 A3004 RMK AO2 SLP171 T01670011
Loading
Personal Weather Stations






























Interactive Weather Map New forecast layout! Learn more

10-Day Weather Forecast

Advertisements
Track Severe Weather on mobile